sensor_id;sensor_type;location;lat;lon;timestamp;temperature;humidity
8557;DHT22;4316;53.840;10.762;2022-08-21T00:01:46;17.00;99.90
8557;DHT22;4316;53.840;10.762;2022-08-21T00:04:12;17.00;99.90
8557;DHT22;4316;53.840;10.762;2022-08-21T00:06:38;17.00;99.90
8557;DHT22;4316;53.840;10.762;2022-08-21T00:09:06;16.90;99.90
8557;DHT22;4316;53.840;10.762;2022-08-21T00:11:33;16.80;99.90
8557;DHT22;4316;53.840;10.762;2022-08-21T00:13:58;16.80;99.90
8557;DHT22;4316;53.840;10.762;2022-08-21T00:16:24;16.80;99.90
8557;DHT22;4316;53.840;10.762;2022-08-21T00:18:49;16.70;99.90
8557;DHT22;4316;53.840;10.762;2022-08-21T00:21:15;16.70;99.90
8557;DHT22;4316;53.840;10.762;2022-08-21T00:23:42;16.60;99.90
8557;DHT22;4316;53.840;10.762;2022-08-21T00:26:07;16.60;99.90
8557;DHT22;4316;53.840;10.762;2022-08-21T00:28:33;16.60;99.90
8557;DHT22;4316;53.840;10.762;2022-08-21T00:30:59;16.60;99.90
8557;DHT22;4316;53.840;10.762;2022-08-21T00:33:25;16.60;99.90
8557;DHT22;4316;53.840;10.762;2022-08-21T00:35:51;16.50;99.90
8557;DHT22;4316;53.840;10.762;2022-08-21T00:38:17;16.60;99.90
8557;DHT22;4316;53.840;10.762;2022-08-21T00:40:53;16.60;99.90
8557;DHT22;4316;53.840;10.762;2022-08-21T00:43:22;16.50;99.90
8557;DHT22;4316;53.840;10.762;2022-08-21T00:45:49;16.50;99.90
8557;DHT22;4316;53.840;10.762;2022-08-21T00:48:15;16.50;99.90
8557;DHT22;4316;53.840;10.762;2022-08-21T00:50:51;16.50;99.90
8557;DHT22;4316;53.840;10.762;2022-08-21T00:53:17;16.40;99.90
8557;DHT22;4316;53.840;10.762;2022-08-21T00:55:43;16.30;99.90
8557;DHT22;4316;53.840;10.762;2022-08-21T00:58:12;16.30;99.90
8557;DHT22;4316;53.840;10.762;2022-08-21T01:00:40;16.20;99.90
8557;DHT22;4316;53.840;10.762;2022-08-21T01:03:11;16.20;99.90
8557;DHT22;4316;53.840;10.762;2022-08-21T01:05:37;16.20;99.90
8557;DHT22;4316;53.840;10.762;2022-08-21T01:08:04;16.20;99.90
8557;DHT22;4316;53.840;10.762;2022-08-21T01:10:30;16.20;99.90
8557;DHT22;4316;53.840;10.762;2022-08-21T01:12:57;16.20;99.90
8557;DHT22;4316;53.840;10.762;2022-08-21T01:15:26;16.20;99.90
8557;DHT22;4316;53.840;10.762;2022-08-21T01:17:54;16.20;99.90
8557;DHT22;4316;53.840;10.762;2022-08-21T01:20:19;16.10;99.90
8557;DHT22;4316;53.840;10.762;2022-08-21T01:22:45;16.20;99.90
8557;DHT22;4316;53.840;10.762;2022-08-21T01:25:13;16.10;99.90
8557;DHT22;4316;53.840;10.762;2022-08-21T01:27:40;16.10;99.90
8557;DHT22;4316;53.840;10.762;2022-08-21T01:30:14;16.10;99.90
8557;DHT22;4316;53.840;10.762;2022-08-21T01:32:40;16.00;99.90
8557;DHT22;4316;53.840;10.762;2022-08-21T01:35:08;16.00;99.90
8557;DHT22;4316;53.840;10.762;2022-08-21T01:37:34;15.90;99.90
8557;DHT22;4316;53.840;10.762;2022-08-21T01:40:00;15.90;99.90
8557;DHT22;4316;53.840;10.762;2022-08-21T01:42:26;15.80;99.90
8557;DHT22;4316;53.840;10.762;2022-08-21T01:44:51;15.80;99.90
8557;DHT22;4316;53.840;10.762;2022-08-21T01:47:18;15.80;99.90
8557;DHT22;4316;53.840;10.762;2022-08-21T01:49:44;15.80;99.90
8557;DHT22;4316;53.840;10.762;2022-08-21T01:52:10;15.70;99.90
8557;DHT22;4316;53.840;10.762;2022-08-21T01:54:38;15.70;99.90
8557;DHT22;4316;53.840;10.762;2022-08-21T01:57:04;15.70;99.90
8557;DHT22;4316;53.840;10.762;2022-08-21T01:59:30;15.70;99.90
8557;DHT22;4316;53.840;10.762;2022-08-21T02:01:56;15.70;99.90
8557;DHT22;4316;53.840;10.762;2022-08-21T02:04:22;15.60;99.90
8557;DHT22;4316;53.840;10.762;2022-08-21T02:06:48;15.60;99.90
8557;DHT22;4316;53.840;10.762;2022-08-21T02:09:14;15.60;99.90
8557;DHT22;4316;53.840;10.762;2022-08-21T02:11:41;15.60;99.90
8557;DHT22;4316;53.840;10.762;2022-08-21T02:14:08;15.60;99.90
8557;DHT22;4316;53.840;10.762;2022-08-21T02:16:34;15.50;99.90
8557;DHT22;4316;53.840;10.762;2022-08-21T02:19:01;15.50;99.90
8557;DHT22;4316;53.840;10.762;2022-08-21T02:21:27;15.40;99.90
8557;DHT22;4316;53.840;10.762;2022-08-21T02:23:52;15.40;99.90
8557;DHT22;4316;53.840;10.762;2022-08-21T02:26:18;15.40;99.90
8557;DHT22;4316;53.840;10.762;2022-08-21T02:28:44;15.40;99.90
8557;DHT22;4316;53.840;10.762;2022-08-21T02:31:10;15.40;99.90
8557;DHT22;4316;53.840;10.762;2022-08-21T02:33:35;15.40;99.90
8557;DHT22;4316;53.840;10.762;2022-08-21T02:36:03;15.30;99.90
8557;DHT22;4316;53.840;10.762;2022-08-21T02:38:31;15.30;99.90
8557;DHT22;4316;53.840;10.762;2022-08-21T02:40:59;15.30;99.90
8557;DHT22;4316;53.840;10.762;2022-08-21T02:43:25;15.20;99.90
8557;DHT22;4316;53.840;10.762;2022-08-21T02:45:54;15.20;99.90
8557;DHT22;4316;53.840;10.762;2022-08-21T02:48:24;15.20;99.90
8557;DHT22;4316;53.840;10.762;2022-08-21T02:50:56;15.20;99.90
8557;DHT22;4316;53.840;10.762;2022-08-21T02:53:23;15.10;99.90
8557;DHT22;4316;53.840;10.762;2022-08-21T02:55:50;15.10;99.90
8557;DHT22;4316;53.840;10.762;2022-08-21T02:58:25;15.00;99.90
8557;DHT22;4316;53.840;10.762;2022-08-21T03:00:51;15.00;99.90
8557;DHT22;4316;53.840;10.762;2022-08-21T03:03:18;14.90;99.90
8557;DHT22;4316;53.840;10.762;2022-08-21T03:05:46;15.00;99.90
8557;DHT22;4316;53.840;10.762;2022-08-21T03:08:13;14.90;99.90
8557;DHT22;4316;53.840;10.762;2022-08-21T03:10:41;14.90;99.90
8557;DHT22;4316;53.840;10.762;2022-08-21T03:13:07;14.90;99.90
8557;DHT22;4316;53.840;10.762;2022-08-21T03:15:33;14.80;99.90
8557;DHT22;4316;53.840;10.762;2022-08-21T03:17:59;14.80;99.90
8557;DHT22;4316;53.840;10.762;2022-08-21T03:20:27;14.70;99.90
8557;DHT22;4316;53.840;10.762;2022-08-21T03:22:55;14.70;99.90
8557;DHT22;4316;53.840;10.762;2022-08-21T03:25:25;14.60;99.90
8557;DHT22;4316;53.840;10.762;2022-08-21T03:27:51;14.60;99.90
8557;DHT22;4316;53.840;10.762;2022-08-21T03:30:18;14.60;99.90
8557;DHT22;4316;53.840;10.762;2022-08-21T03:32:45;14.50;99.90
8557;DHT22;4316;53.840;10.762;2022-08-21T03:35:12;14.60;99.90
8557;DHT22;4316;53.840;10.762;2022-08-21T03:37:38;14.50;99.90
8557;DHT22;4316;53.840;10.762;2022-08-21T03:40:05;14.60;99.90
8557;DHT22;4316;53.840;10.762;2022-08-21T03:42:31;14.60;99.90
8557;DHT22;4316;53.840;10.762;2022-08-21T03:44:57;14.60;99.90
8557;DHT22;4316;53.840;10.762;2022-08-21T03:47:23;14.60;99.90
8557;DHT22;4316;53.840;10.762;2022-08-21T03:49:48;14.60;99.90
8557;DHT22;4316;53.840;10.762;2022-08-21T03:52:15;14.60;99.90
8557;DHT22;4316;53.840;10.762;2022-08-21T03:54:41;14.60;99.90
8557;DHT22;4316;53.840;10.762;2022-08-21T03:57:07;14.50;99.90
8557;DHT22;4316;53.840;10.762;2022-08-21T03:59:34;14.50;99.90
8557;DHT22;4316;53.840;10.762;2022-08-21T04:02:02;14.50;99.90
8557;DHT22;4316;53.840;10.762;2022-08-21T04:04:29;14.40;99.90
8557;DHT22;4316;53.840;10.762;2022-08-21T04:06:58;14.40;99.90
8557;DHT22;4316;53.840;10.762;2022-08-21T04:09:24;14.40;99.90
8557;DHT22;4316;53.840;10.762;2022-08-21T04:11:50;14.40;99.90
8557;DHT22;4316;53.840;10.762;2022-08-21T04:14:16;14.40;99.90
8557;DHT22;4316;53.840;10.762;2022-08-21T04:16:43;14.40;99.90
8557;DHT22;4316;53.840;10.762;2022-08-21T04:19:10;14.40;99.90
8557;DHT22;4316;53.840;10.762;2022-08-21T04:21:37;14.40;99.90
8557;DHT22;4316;53.840;10.762;2022-08-21T04:24:04;14.40;99.90
8557;DHT22;4316;53.840;10.762;2022-08-21T04:26:29;14.30;99.90
8557;DHT22;4316;53.840;10.762;2022-08-21T04:28:57;14.30;99.90
8557;DHT22;4316;53.840;10.762;2022-08-21T04:31:23;14.30;99.90
8557;DHT22;4316;53.840;10.762;2022-08-21T04:33:49;14.30;99.90
8557;DHT22;4316;53.840;10.762;2022-08-21T04:36:16;14.30;99.90
8557;DHT22;4316;53.840;10.762;2022-08-21T04:38:41;14.30;99.90
8557;DHT22;4316;53.840;10.762;2022-08-21T04:41:07;14.30;99.90
8557;DHT22;4316;53.840;10.762;2022-08-21T04:43:33;14.30;99.90
8557;DHT22;4316;53.840;10.762;2022-08-21T04:45:58;14.30;99.90
8557;DHT22;4316;53.840;10.762;2022-08-21T04:48:26;14.30;99.90
8557;DHT22;4316;53.840;10.762;2022-08-21T04:51:00;14.40;99.90
8557;DHT22;4316;53.840;10.762;2022-08-21T04:55:59;14.40;99.90
8557;DHT22;4316;53.840;10.762;2022-08-21T04:58:27;14.40;99.90
8557;DHT22;4316;53.840;10.762;2022-08-21T05:00:56;14.40;99.90
8557;DHT22;4316;53.840;10.762;2022-08-21T05:03:23;14.40;99.90
8557;DHT22;4316;53.840;10.762;2022-08-21T05:05:49;14.40;99.90
8557;DHT22;4316;53.840;10.762;2022-08-21T05:08:17;14.40;99.90
8557;DHT22;4316;53.840;10.762;2022-08-21T05:10:44;14.50;99.90
8557;DHT22;4316;53.840;10.762;2022-08-21T05:13:11;14.50;99.90
8557;DHT22;4316;53.840;10.762;2022-08-21T05:15:38;14.50;99.90
8557;DHT22;4316;53.840;10.762;2022-08-21T05:18:05;14.50;99.90
8557;DHT22;4316;53.840;10.762;2022-08-21T05:20:32;14.50;99.90
8557;DHT22;4316;53.840;10.762;2022-08-21T05:23:00;14.60;99.90
8557;DHT22;4316;53.840;10.762;2022-08-21T05:25:26;14.60;99.90
8557;DHT22;4316;53.840;10.762;2022-08-21T05:27:52;14.60;99.90
8557;DHT22;4316;53.840;10.762;2022-08-21T05:30:20;14.70;99.90
8557;DHT22;4316;53.840;10.762;2022-08-21T05:32:46;14.80;99.90
8557;DHT22;4316;53.840;10.762;2022-08-21T05:35:12;14.90;99.90
8557;DHT22;4316;53.840;10.762;2022-08-21T05:37:39;14.90;99.90
8557;DHT22;4316;53.840;10.762;2022-08-21T05:40:05;15.00;99.90
8557;DHT22;4316;53.840;10.762;2022-08-21T05:42:31;15.00;99.90
8557;DHT22;4316;53.840;10.762;2022-08-21T05:44:57;15.00;99.90
8557;DHT22;4316;53.840;10.762;2022-08-21T05:47:22;15.10;99.90
8557;DHT22;4316;53.840;10.762;2022-08-21T05:49:48;15.10;99.90
8557;DHT22;4316;53.840;10.762;2022-08-21T05:52:19;15.20;99.90
8557;DHT22;4316;53.840;10.762;2022-08-21T05:54:45;15.30;99.90
8557;DHT22;4316;53.840;10.762;2022-08-21T05:57:10;15.40;99.90
8557;DHT22;4316;53.840;10.762;2022-08-21T05:59:36;15.60;99.90
8557;DHT22;4316;53.840;10.762;2022-08-21T06:02:03;15.70;99.90
8557;DHT22;4316;53.840;10.762;2022-08-21T06:04:29;15.80;99.90
8557;DHT22;4316;53.840;10.762;2022-08-21T06:06:54;15.90;99.90
8557;DHT22;4316;53.840;10.762;2022-08-21T06:09:20;15.90;99.90
8557;DHT22;4316;53.840;10.762;2022-08-21T06:11:46;15.90;99.90
8557;DHT22;4316;53.840;10.762;2022-08-21T06:14:14;16.00;99.90
8557;DHT22;4316;53.840;10.762;2022-08-21T06:16:40;16.10;99.90
8557;DHT22;4316;53.840;10.762;2022-08-21T06:19:06;16.10;99.90
8557;DHT22;4316;53.840;10.762;2022-08-21T06:21:31;16.30;99.90
8557;DHT22;4316;53.840;10.762;2022-08-21T06:23:57;16.50;99.90
8557;DHT22;4316;53.840;10.762;2022-08-21T06:26:23;16.70;99.90
8557;DHT22;4316;53.840;10.762;2022-08-21T06:28:49;17.00;99.90
8557;DHT22;4316;53.840;10.762;2022-08-21T06:31:17;17.20;99.90
8557;DHT22;4316;53.840;10.762;2022-08-21T06:33:43;17.20;99.90
8557;DHT22;4316;53.840;10.762;2022-08-21T06:36:09;17.40;99.90
8557;DHT22;4316;53.840;10.762;2022-08-21T06:38:36;17.60;99.90
8557;DHT22;4316;53.840;10.762;2022-08-21T06:41:03;17.90;99.90
8557;DHT22;4316;53.840;10.762;2022-08-21T06:43:28;18.10;99.90
8557;DHT22;4316;53.840;10.762;2022-08-21T06:45:54;18.30;99.90
8557;DHT22;4316;53.840;10.762;2022-08-21T06:48:20;18.50;99.90
8557;DHT22;4316;53.840;10.762;2022-08-21T06:50:46;18.80;99.90
8557;DHT22;4316;53.840;10.762;2022-08-21T06:53:15;19.00;99.90
8557;DHT22;4316;53.840;10.762;2022-08-21T06:55:41;19.10;99.90
8557;DHT22;4316;53.840;10.762;2022-08-21T06:58:08;19.20;99.90
8557;DHT22;4316;53.840;10.762;2022-08-21T07:00:36;19.50;99.90
8557;DHT22;4316;53.840;10.762;2022-08-21T07:03:03;19.70;99.90
8557;DHT22;4316;53.840;10.762;2022-08-21T07:05:30;19.90;99.90
8557;DHT22;4316;53.840;10.762;2022-08-21T07:07:56;20.20;99.90
8557;DHT22;4316;53.840;10.762;2022-08-21T07:10:26;20.50;99.90
8557;DHT22;4316;53.840;10.762;2022-08-21T07:12:53;20.80;99.90
8557;DHT22;4316;53.840;10.762;2022-08-21T07:15:20;21.10;99.90
8557;DHT22;4316;53.840;10.762;2022-08-21T07:17:46;21.30;99.90
8557;DHT22;4316;53.840;10.762;2022-08-21T07:20:11;21.60;99.90
8557;DHT22;4316;53.840;10.762;2022-08-21T07:22:38;21.80;99.90
8557;DHT22;4316;53.840;10.762;2022-08-21T07:25:05;22.00;99.90
8557;DHT22;4316;53.840;10.762;2022-08-21T07:27:30;22.10;99.90
8557;DHT22;4316;53.840;10.762;2022-08-21T07:29:57;22.30;99.90
8557;DHT22;4316;53.840;10.762;2022-08-21T07:32:23;22.50;99.90
8557;DHT22;4316;53.840;10.762;2022-08-21T07:34:48;22.80;99.90
8557;DHT22;4316;53.840;10.762;2022-08-21T07:37:14;23.10;99.90
8557;DHT22;4316;53.840;10.762;2022-08-21T07:39:40;23.00;99.90
8557;DHT22;4316;53.840;10.762;2022-08-21T07:42:06;23.20;99.90
8557;DHT22;4316;53.840;10.762;2022-08-21T07:44:32;23.40;99.90
8557;DHT22;4316;53.840;10.762;2022-08-21T07:47:00;23.60;99.90
8557;DHT22;4316;53.840;10.762;2022-08-21T07:49:25;23.60;99.90
8557;DHT22;4316;53.840;10.762;2022-08-21T07:51:51;23.80;99.90
8557;DHT22;4316;53.840;10.762;2022-08-21T07:54:17;24.00;99.90
8557;DHT22;4316;53.840;10.762;2022-08-21T07:56:42;24.30;99.90
8557;DHT22;4316;53.840;10.762;2022-08-21T07:59:08;24.70;99.90
8557;DHT22;4316;53.840;10.762;2022-08-21T08:01:34;24.80;99.10
8557;DHT22;4316;53.840;10.762;2022-08-21T08:03:59;25.00;98.40
8557;DHT22;4316;53.840;10.762;2022-08-21T08:06:25;24.90;98.70
8557;DHT22;4316;53.840;10.762;2022-08-21T08:08:51;25.10;98.20
8557;DHT22;4316;53.840;10.762;2022-08-21T08:11:17;25.30;98.00
8557;DHT22;4316;53.840;10.762;2022-08-21T08:13:46;25.10;97.10
8557;DHT22;4316;53.840;10.762;2022-08-21T08:16:13;25.00;98.00
8557;DHT22;4316;53.840;10.762;2022-08-21T08:18:38;24.80;97.50
8557;DHT22;4316;53.840;10.762;2022-08-21T08:21:04;24.80;97.70
8557;DHT22;4316;53.840;10.762;2022-08-21T08:23:31;25.20;97.80
8557;DHT22;4316;53.840;10.762;2022-08-21T08:25:58;25.60;98.00
8557;DHT22;4316;53.840;10.762;2022-08-21T08:28:24;26.00;96.60
8557;DHT22;4316;53.840;10.762;2022-08-21T08:30:50;26.20;96.00
8557;DHT22;4316;53.840;10.762;2022-08-21T08:33:16;26.30;95.90
8557;DHT22;4316;53.840;10.762;2022-08-21T08:35:46;26.30;96.00
8557;DHT22;4316;53.840;10.762;2022-08-21T08:38:13;26.60;96.00
8557;DHT22;4316;53.840;10.762;2022-08-21T08:43:32;26.80;95.80
8557;DHT22;4316;53.840;10.762;2022-08-21T08:46:02;26.90;94.40
8557;DHT22;4316;53.840;10.762;2022-08-21T08:54:15;27.40;94.40
8557;DHT22;4316;53.840;10.762;2022-08-21T08:56:43;27.40;94.30
8557;DHT22;4316;53.840;10.762;2022-08-21T08:59:25;27.50;93.70
8557;DHT22;4316;53.840;10.762;2022-08-21T09:01:53;27.50;93.40
8557;DHT22;4316;53.840;10.762;2022-08-21T09:04:24;27.80;94.00
8557;DHT22;4316;53.840;10.762;2022-08-21T09:06:58;28.10;93.70
8557;DHT22;4316;53.840;10.762;2022-08-21T09:12:12;28.30;92.90
8557;DHT22;4316;53.840;10.762;2022-08-21T09:15:06;28.30;93.10
8557;DHT22;4316;53.840;10.762;2022-08-21T09:17:59;28.50;92.70
8557;DHT22;4316;53.840;10.762;2022-08-21T09:26:23;28.20;92.70
8557;DHT22;4316;53.840;10.762;2022-08-21T09:28:52;28.20;92.40
8557;DHT22;4316;53.840;10.762;2022-08-21T09:31:25;28.30;93.40
8557;DHT22;4316;53.840;10.762;2022-08-21T09:33:57;28.50;92.40
8557;DHT22;4316;53.840;10.762;2022-08-21T09:36:28;28.60;93.10
8557;DHT22;4316;53.840;10.762;2022-08-21T09:38:55;28.40;92.40
8557;DHT22;4316;53.840;10.762;2022-08-21T09:41:30;28.50;92.50
8557;DHT22;4316;53.840;10.762;2022-08-21T09:43:56;28.50;93.00
8557;DHT22;4316;53.840;10.762;2022-08-21T09:46:24;28.60;92.10
8557;DHT22;4316;53.840;10.762;2022-08-21T09:48:52;28.70;92.30
8557;DHT22;4316;53.840;10.762;2022-08-21T09:51:27;28.70;92.20
8557;DHT22;4316;53.840;10.762;2022-08-21T09:54:09;28.70;92.00
8557;DHT22;4316;53.840;10.762;2022-08-21T09:56:39;28.60;91.90
8557;DHT22;4316;53.840;10.762;2022-08-21T09:59:30;28.30;91.70
8557;DHT22;4316;53.840;10.762;2022-08-21T10:01:59;28.60;92.20
8557;DHT22;4316;53.840;10.762;2022-08-21T10:04:34;28.70;92.40
8557;DHT22;4316;53.840;10.762;2022-08-21T10:07:11;28.80;92.50
8557;DHT22;4316;53.840;10.762;2022-08-21T10:09:38;28.40;92.10
8557;DHT22;4316;53.840;10.762;2022-08-21T10:17:36;28.20;92.60
8557;DHT22;4316;53.840;10.762;2022-08-21T10:22:44;28.40;92.30
8557;DHT22;4316;53.840;10.762;2022-08-21T10:25:17;28.50;92.70
8557;DHT22;4316;53.840;10.762;2022-08-21T10:28:40;28.60;92.70
8557;DHT22;4316;53.840;10.762;2022-08-21T10:31:22;28.00;92.30
8557;DHT22;4316;53.840;10.762;2022-08-21T10:39:35;28.50;92.40
8557;DHT22;4316;53.840;10.762;2022-08-21T10:42:21;28.50;92.70
8557;DHT22;4316;53.840;10.762;2022-08-21T10:47:35;27.20;92.90
8557;DHT22;4316;53.840;10.762;2022-08-21T10:50:22;27.30;93.50
8557;DHT22;4316;53.840;10.762;2022-08-21T10:56:12;27.60;93.30
8557;DHT22;4316;53.840;10.762;2022-08-21T10:58:55;27.30;93.30
8557;DHT22;4316;53.840;10.762;2022-08-21T11:01:32;26.90;94.00
8557;DHT22;4316;53.840;10.762;2022-08-21T11:04:19;26.70;94.20
8557;DHT22;4316;53.840;10.762;2022-08-21T11:06:53;26.60;94.40
8557;DHT22;4316;53.840;10.762;2022-08-21T11:09:24;26.30;94.40
8557;DHT22;4316;53.840;10.762;2022-08-21T11:12:00;26.30;94.30
8557;DHT22;4316;53.840;10.762;2022-08-21T11:17:11;27.30;93.80
8557;DHT22;4316;53.840;10.762;2022-08-21T11:20:17;27.70;93.10
8557;DHT22;4316;53.840;10.762;2022-08-21T11:22:56;28.10;93.00
8557;DHT22;4316;53.840;10.762;2022-08-21T11:25:29;28.30;92.60
8557;DHT22;4316;53.840;10.762;2022-08-21T11:28:06;28.10;92.30
8557;DHT22;4316;53.840;10.762;2022-08-21T11:30:59;27.60;92.60
8557;DHT22;4316;53.840;10.762;2022-08-21T11:34:00;27.10;93.00
8557;DHT22;4316;53.840;10.762;2022-08-21T11:36:45;26.80;93.50
8557;DHT22;4316;53.840;10.762;2022-08-21T11:39:33;26.30;94.00
8557;DHT22;4316;53.840;10.762;2022-08-21T11:45:39;26.10;94.20
8557;DHT22;4316;53.840;10.762;2022-08-21T11:50:52;26.40;93.60
8557;DHT22;4316;53.840;10.762;2022-08-21T11:53:36;26.70;93.80
8557;DHT22;4316;53.840;10.762;2022-08-21T11:56:09;26.70;93.40
8557;DHT22;4316;53.840;10.762;2022-08-21T11:58:40;26.50;93.60
8557;DHT22;4316;53.840;10.762;2022-08-21T12:01:17;26.40;93.50
8557;DHT22;4316;53.840;10.762;2022-08-21T12:03:56;26.40;93.50
8557;DHT22;4316;53.840;10.762;2022-08-21T12:06:34;26.40;93.70
8557;DHT22;4316;53.840;10.762;2022-08-21T12:09:07;26.20;93.80
8557;DHT22;4316;53.840;10.762;2022-08-21T12:11:47;26.00;94.00
8557;DHT22;4316;53.840;10.762;2022-08-21T12:14:16;25.90;94.40
8557;DHT22;4316;53.840;10.762;2022-08-21T12:16:44;26.00;94.40
8557;DHT22;4316;53.840;10.762;2022-08-21T12:19:33;26.30;94.30
8557;DHT22;4316;53.840;10.762;2022-08-21T12:26:57;27.00;93.40
8557;DHT22;4316;53.840;10.762;2022-08-21T12:29:29;27.40;93.30
8557;DHT22;4316;53.840;10.762;2022-08-21T12:32:19;27.60;93.30
8557;DHT22;4316;53.840;10.762;2022-08-21T12:35:10;27.80;92.80
8557;DHT22;4316;53.840;10.762;2022-08-21T12:37:41;27.80;92.80
8557;DHT22;4316;53.840;10.762;2022-08-21T12:40:22;27.80;92.50
8557;DHT22;4316;53.840;10.762;2022-08-21T12:42:53;27.80;92.60
8557;DHT22;4316;53.840;10.762;2022-08-21T12:45:33;28.00;92.80
8557;DHT22;4316;53.840;10.762;2022-08-21T12:50:48;27.80;91.80
8557;DHT22;4316;53.840;10.762;2022-08-21T12:53:32;27.70;92.60
8557;DHT22;4316;53.840;10.762;2022-08-21T12:56:07;27.70;92.40
8557;DHT22;4316;53.840;10.762;2022-08-21T12:58:34;27.50;92.10
8557;DHT22;4316;53.840;10.762;2022-08-21T13:01:07;27.40;91.90
8557;DHT22;4316;53.840;10.762;2022-08-21T13:03:35;27.10;92.00
8557;DHT22;4316;53.840;10.762;2022-08-21T13:06:06;27.20;92.50
8557;DHT22;4316;53.840;10.762;2022-08-21T13:08:35;27.30;92.40
8557;DHT22;4316;53.840;10.762;2022-08-21T13:11:04;27.20;92.40
8557;DHT22;4316;53.840;10.762;2022-08-21T13:13:33;27.30;92.00
8557;DHT22;4316;53.840;10.762;2022-08-21T13:16:03;27.20;92.00
8557;DHT22;4316;53.840;10.762;2022-08-21T13:18:32;27.30;92.10
8557;DHT22;4316;53.840;10.762;2022-08-21T13:21:14;27.40;92.20
8557;DHT22;4316;53.840;10.762;2022-08-21T13:23:41;27.40;92.10
8557;DHT22;4316;53.840;10.762;2022-08-21T13:26:33;27.20;91.90
8557;DHT22;4316;53.840;10.762;2022-08-21T13:29:07;27.30;92.20
8557;DHT22;4316;53.840;10.762;2022-08-21T13:31:33;27.30;92.40
8557;DHT22;4316;53.840;10.762;2022-08-21T13:33:59;27.20;91.90
8557;DHT22;4316;53.840;10.762;2022-08-21T13:36:32;27.30;91.60
8557;DHT22;4316;53.840;10.762;2022-08-21T13:39:04;27.10;91.40
8557;DHT22;4316;53.840;10.762;2022-08-21T13:41:34;27.10;91.60
8557;DHT22;4316;53.840;10.762;2022-08-21T13:46:47;27.00;92.00
8557;DHT22;4316;53.840;10.762;2022-08-21T13:49:18;27.10;91.20
8557;DHT22;4316;53.840;10.762;2022-08-21T13:51:47;27.10;91.30
8557;DHT22;4316;53.840;10.762;2022-08-21T13:54:32;27.20;91.50
8557;DHT22;4316;53.840;10.762;2022-08-21T13:56:59;27.30;91.00
8557;DHT22;4316;53.840;10.762;2022-08-21T13:59:33;27.50;91.00
8557;DHT22;4316;53.840;10.762;2022-08-21T14:02:15;27.50;90.40
8557;DHT22;4316;53.840;10.762;2022-08-21T14:04:57;27.50;90.90
8557;DHT22;4316;53.840;10.762;2022-08-21T14:07:39;27.50;90.80
8557;DHT22;4316;53.840;10.762;2022-08-21T14:10:16;27.60;90.20
8557;DHT22;4316;53.840;10.762;2022-08-21T14:12:46;27.60;90.80
8557;DHT22;4316;53.840;10.762;2022-08-21T14:15:14;27.70;90.70
8557;DHT22;4316;53.840;10.762;2022-08-21T14:17:42;27.80;90.60
8557;DHT22;4316;53.840;10.762;2022-08-21T14:20:25;27.90;90.20
8557;DHT22;4316;53.840;10.762;2022-08-21T14:22:50;28.10;90.70
8557;DHT22;4316;53.840;10.762;2022-08-21T14:28:10;27.80;90.20
8557;DHT22;4316;53.840;10.762;2022-08-21T14:30:39;27.90;90.40
8557;DHT22;4316;53.840;10.762;2022-08-21T14:33:10;28.10;90.10
8557;DHT22;4316;53.840;10.762;2022-08-21T14:35:36;28.00;89.90
8557;DHT22;4316;53.840;10.762;2022-08-21T14:38:02;28.00;90.20
8557;DHT22;4316;53.840;10.762;2022-08-21T14:40:27;28.00;90.60
8557;DHT22;4316;53.840;10.762;2022-08-21T14:42:53;27.70;90.00
8557;DHT22;4316;53.840;10.762;2022-08-21T14:45:28;27.60;90.50
8557;DHT22;4316;53.840;10.762;2022-08-21T14:47:55;27.50;90.30
8557;DHT22;4316;53.840;10.762;2022-08-21T14:50:21;27.30;90.40
8557;DHT22;4316;53.840;10.762;2022-08-21T14:52:47;27.30;90.60
8557;DHT22;4316;53.840;10.762;2022-08-21T14:55:17;27.30;90.10
8557;DHT22;4316;53.840;10.762;2022-08-21T14:57:46;27.40;90.10
8557;DHT22;4316;53.840;10.762;2022-08-21T15:00:14;27.40;90.20
8557;DHT22;4316;53.840;10.762;2022-08-21T15:02:43;27.50;90.50
8557;DHT22;4316;53.840;10.762;2022-08-21T15:05:09;27.50;90.20
8557;DHT22;4316;53.840;10.762;2022-08-21T15:07:35;27.50;90.40
8557;DHT22;4316;53.840;10.762;2022-08-21T15:10:02;27.50;90.20
8557;DHT22;4316;53.840;10.762;2022-08-21T15:12:28;27.60;90.50
8557;DHT22;4316;53.840;10.762;2022-08-21T15:14:55;27.70;90.20
8557;DHT22;4316;53.840;10.762;2022-08-21T15:17:21;27.70;90.10
8557;DHT22;4316;53.840;10.762;2022-08-21T15:19:47;27.70;88.80
8557;DHT22;4316;53.840;10.762;2022-08-21T15:22:12;27.60;89.00
8557;DHT22;4316;53.840;10.762;2022-08-21T15:24:41;27.70;90.10
8557;DHT22;4316;53.840;10.762;2022-08-21T15:27:08;27.80;90.00
8557;DHT22;4316;53.840;10.762;2022-08-21T15:29:34;27.60;88.70
8557;DHT22;4316;53.840;10.762;2022-08-21T15:32:22;27.30;89.10
8557;DHT22;4316;53.840;10.762;2022-08-21T15:34:49;27.00;88.40
8557;DHT22;4316;53.840;10.762;2022-08-21T15:37:15;26.90;89.90
8557;DHT22;4316;53.840;10.762;2022-08-21T15:39:41;26.90;90.00
8557;DHT22;4316;53.840;10.762;2022-08-21T15:42:07;26.90;89.50
8557;DHT22;4316;53.840;10.762;2022-08-21T15:44:33;26.90;89.70
8557;DHT22;4316;53.840;10.762;2022-08-21T15:46:59;26.80;90.10
8557;DHT22;4316;53.840;10.762;2022-08-21T15:49:25;26.70;89.90
8557;DHT22;4316;53.840;10.762;2022-08-21T15:51:54;26.50;90.20
8557;DHT22;4316;53.840;10.762;2022-08-21T15:54:22;26.40;90.30
8557;DHT22;4316;53.840;10.762;2022-08-21T15:56:50;26.50;90.00
8557;DHT22;4316;53.840;10.762;2022-08-21T15:59:21;26.60;90.10
8557;DHT22;4316;53.840;10.762;2022-08-21T16:01:50;26.70;90.10
8557;DHT22;4316;53.840;10.762;2022-08-21T16:04:22;26.80;90.50
8557;DHT22;4316;53.840;10.762;2022-08-21T16:06:51;26.90;90.20
8557;DHT22;4316;53.840;10.762;2022-08-21T16:09:22;26.90;90.80
8557;DHT22;4316;53.840;10.762;2022-08-21T16:11:48;26.90;90.00
8557;DHT22;4316;53.840;10.762;2022-08-21T16:14:15;26.80;90.10
8557;DHT22;4316;53.840;10.762;2022-08-21T16:16:42;26.60;90.20
8557;DHT22;4316;53.840;10.762;2022-08-21T16:19:08;26.60;90.50
8557;DHT22;4316;53.840;10.762;2022-08-21T16:21:35;26.60;90.70
8557;DHT22;4316;53.840;10.762;2022-08-21T16:24:03;26.60;90.50
8557;DHT22;4316;53.840;10.762;2022-08-21T16:26:32;26.60;90.90
8557;DHT22;4316;53.840;10.762;2022-08-21T16:28:59;26.60;90.40
8557;DHT22;4316;53.840;10.762;2022-08-21T16:31:32;26.60;90.10
8557;DHT22;4316;53.840;10.762;2022-08-21T16:33:58;26.50;90.60
8557;DHT22;4316;53.840;10.762;2022-08-21T16:36:25;26.50;90.30
8557;DHT22;4316;53.840;10.762;2022-08-21T16:38:52;26.40;90.50
8557;DHT22;4316;53.840;10.762;2022-08-21T16:41:23;26.40;90.60
8557;DHT22;4316;53.840;10.762;2022-08-21T16:43:50;26.30;91.00
8557;DHT22;4316;53.840;10.762;2022-08-21T16:46:17;26.30;90.70
8557;DHT22;4316;53.840;10.762;2022-08-21T16:48:46;26.30;91.00
8557;DHT22;4316;53.840;10.762;2022-08-21T16:51:15;26.20;90.70
8557;DHT22;4316;53.840;10.762;2022-08-21T16:53:41;26.20;90.60
8557;DHT22;4316;53.840;10.762;2022-08-21T16:56:08;26.10;90.50
8557;DHT22;4316;53.840;10.762;2022-08-21T16:58:37;26.10;91.00
8557;DHT22;4316;53.840;10.762;2022-08-21T17:01:07;26.10;91.00